Sarah Desgagnes — XJAB — position and weather

sailwx.info

Track history (hours):
 
Tides and Currents Weather Stations Pressure Air Temp Water Temp Dewpoint Dewpoint Depression Visibility Wind Speed Wind Dir Waves Ship Positions

Sarah Desgagnes

Last reported at 2016-May-06 14:33 UTC. Time now 2016-May-06 14:56 UTC.
Position N 52°24' E 004°52'.

Length 147 m; draft 7.9 m.

Type: Ship. MMSI: 316012308.

Date/timePositionNaut miles runAvg speedWind from/ knotsBaromVisibWave heightAir tempDewpointWater temp
2016-May-06 14:33N 52°24' E 004°52'4 4.5
2016-May-06 13:33N 52°25' E 004°45'0 0.1
2016-May-06 12:25N 52°25' E 004°45'0 0.0
2016-May-06 11:31N 52°25' E 004°45'0 0.0
2016-May-06 10:31N 52°25' E 004°45'0 0.0
2016-May-06 09:22N 52°25' E 004°45'0 0.0
2016-May-06 08:31N 52°25' E 004°45'0 0.0
2016-May-06 07:28N 52°25' E 004°45'0 0.0
2016-May-06 06:31N 52°25' E 004°45'0 0.0
2016-May-06 05:31N 52°25' E 004°45'0 0.0
2016-May-06 04:28N 52°25' E 004°45'0 0.0
2016-May-06 03:28N 52°25' E 004°45'0 0.0
2016-May-06 02:28N 52°25' E 004°45'0 0.0
2016-May-06 01:31N 52°25' E 004°45'0 0.0
2016-May-06 00:28N 52°25' E 004°45'0 0.0
2016-May-05 23:31N 52°25' E 004°45'0 0.0
2016-May-05 22:28N 52°25' E 004°45'0 0.0
2016-May-05 21:31N 52°25' E 004°45'0 0.0
2016-May-05 20:28N 52°25' E 004°45'0 0.0
2016-May-05 19:31N 52°25' E 004°45'0 0.0
2016-May-05 18:31N 52°25' E 004°45'0 0.0
2016-May-05 17:28N 52°25' E 004°45'0 0.0
2016-May-05 16:25N 52°25' E 004°45'0 0.0
2016-May-05 15:31N 52°25' E 004°45'0 0.0
2016-May-05 14:31N 52°25' E 004°45'0 0.0
2016-May-05 13:31N 52°25' E 004°45'0 0.0
2016-May-05 12:31N 52°25' E 004°45'0 0.0
2016-May-05 11:31N 52°25' E 004°45'0 0.0
2016-May-05 10:28N 52°25' E 004°45'0 0.0
2016-May-05 09:31N 52°25' E 004°45'0 0.0
2016-May-05 08:28N 52°25' E 004°45'0 0.0
2016-May-05 07:25N 52°25' E 004°45'0 0.0
2016-May-05 06:31N 52°25' E 004°45'0 0.0
2016-May-05 05:28N 52°25' E 004°45'0 0.0
2016-May-05 04:31N 52°25' E 004°45'0 0.0
2016-May-05 03:31N 52°25' E 004°45'0 0.0
2016-May-05 02:31N 52°25' E 004°45'0 0.0
2016-May-05 01:31N 52°25' E 004°45'0 0.0
2016-May-05 00:28N 52°25' E 004°45'0 0.0
2016-May-04 23:31N 52°25' E 004°45'0 0.0
2016-May-04 22:31N 52°25' E 004°45'0 0.0
2016-May-04 21:31N 52°25' E 004°45'2 2.0
2016-May-04 20:33N 52°26' E 004°43'4 4.2
2016-May-04 19:34N 52°28' E 004°37'7 7.1
2016-May-04 18:33N 52°28' E 004°25'9 9.1
2016-May-04 17:34N 52°29' E 004°10'3 2.6
2016-May-04 16:32N 52°27' E 004°06'0 0.0
2016-May-04 15:32N 52°27' E 004°06'3 3.3
2016-May-04 14:33N 52°28' E 004°01'1211.9
2016-May-04 13:33N 52°25' E 003°42'1212.4
2016-May-04 12:33N 52°19' E 003°24'1313.1
2016-May-04 11:34N 52°10' E 003°09'1312.9
2016-May-04 10:33N 52°00' E 002°55'1312.9
2016-May-04 09:33N 51°50' E 002°42'1312.8
2016-May-04 08:33N 51°41' E 002°28'1312.8
2016-May-04 07:33N 51°31' E 002°14'1312.6
2016-May-04 06:33N 51°23' E 001°60'1211.6
2016-May-04 05:33N 51°28' E 001°43'1111.4
2016-May-04 04:33N 51°28' E 001°25'1212.2
2016-May-04 03:33N 51°30' E 001°05'1212.4
2016-May-04 02:33N 51°29' E 000°45'9 8.7
2016-May-04 01:33N 51°30' E 000°31'0 0.0
2016-May-04 00:32N 51°30' E 000°31'0 0.0
2016-May-03 23:32N 51°30' E 000°31'0 0.0
2016-May-03 22:31N 51°30' E 000°31'0 0.0
2016-May-03 21:32N 51°30' E 000°31'0 0.0
2016-May-03 20:32N 51°30' E 000°31'0 0.0
2016-May-03 19:32N 51°30' E 000°31'0 0.0
2016-May-03 18:29N 51°30' E 000°31'0 0.0
2016-May-03 17:32N 51°30' E 000°31'0 0.0
2016-May-03 16:31N 51°30' E 000°31'0 0.0
2016-May-03 15:32N 51°30' E 000°31'0 0.0
2016-May-03 14:31N 51°30' E 000°31'0 0.0
2016-May-03 13:32N 51°30' E 000°31'0 0.0
2016-May-03 12:32N 51°30' E 000°31'0 0.0
2016-May-03 11:31N 51°30' E 000°31'0 0.0
2016-May-03 10:31N 51°30' E 000°31'0 0.0
2016-May-03 09:25N 51°30' E 000°31'0 0.0
2016-May-03 08:31N 51°30' E 000°31'0 0.0
2016-May-03 07:31N 51°30' E 000°31'1 0.7
2016-May-03 06:33N 51°30' E 000°33'1111.2
2016-May-03 05:33N 51°29' E 000°51'1312.8
2016-May-03 04:33N 51°33' E 001°10'1313.4
2016-May-03 03:33N 51°42' E 001°27'7 7.3
2016-May-03 02:32N 51°49' E 001°29'0 0.1
2016-May-03 01:32N 51°49' E 001°29'0 0.0
2016-May-03 00:32N 51°49' E 001°29'0 0.0
2016-May-02 23:32N 51°49' E 001°29'0 0.0
2016-May-02 22:32N 51°49' E 001°29'0 0.0
2016-May-02 21:32N 51°49' E 001°29'0 0.0
2016-May-02 20:32N 51°49' E 001°29'0 0.1
2016-May-02 19:32N 51°49' E 001°29'0 0.1
2016-May-02 18:32N 51°49' E 001°29'0 0.0
2016-May-02 17:32N 51°49' E 001°29'0 0.0
2016-May-02 16:32N 51°49' E 001°29'0 0.1
2016-May-02 15:32N 51°49' E 001°29'0 0.2
2016-May-02 14:32N 51°49' E 001°29'0 0.3
2016-May-02 13:33N 51°49' E 001°29'8 8.2
2016-May-02 12:33N 51°52' E 001°42'1010.0
2016-May-02 11:33N 51°60' E 001°51'9 8.9
2016-May-02 10:33N 52°02' E 002°05'30 9.6
2016-May-02 07:28N 52°10' E 002°52'1010.3
2016-May-02 06:30N 52°16' E 003°04'1111.7
2016-May-02 05:33N 52°25' E 003°15'1211.8
2016-May-02 04:33N 52°30' E 003°33'1211.9
2016-May-02 03:33N 52°31' E 003°52'1212.1
2016-May-02 02:33N 52°31' E 004°12'1211.7
2016-May-02 01:33N 52°28' E 004°31'4 4.5
2016-May-02 00:33N 52°28' E 004°38'6 5.7
2016-May-01 23:33N 52°25' E 004°46'1 0.5
2016-May-01 22:32N 52°25' E 004°47'0 0.0
2016-May-01 21:29N 52°25' E 004°47'0 0.0
2016-May-01 20:29N 52°25' E 004°47'0 0.0
2016-May-01 19:29N 52°25' E 004°47'0 0.0
2016-May-01 18:32N 52°25' E 004°47'0 0.0
2016-May-01 17:32N 52°25' E 004°47'0 0.0
2016-May-01 16:32N 52°25' E 004°47'0 0.0
2016-May-01 15:32N 52°25' E 004°47'0 0.0
2016-May-01 14:32N 52°25' E 004°47'0 0.0
2016-May-01 13:32N 52°25' E 004°47'0 0.0
2016-May-01 12:32N 52°25' E 004°47'0 0.0
2016-May-01 11:32N 52°25' E 004°47'0 0.0
2016-May-01 10:32N 52°25' E 004°47'0 0.0
2016-May-01 09:32N 52°25' E 004°47'0 0.0
2016-May-01 08:32N 52°25' E 004°47'0 0.0
2016-May-01 07:32N 52°25' E 004°47'0 0.0
2016-May-01 06:32N 52°25' E 004°47'0 0.0
2016-May-01 05:32N 52°25' E 004°47'0 0.0
2016-May-01 04:26N 52°25' E 004°47'0 0.0
2016-May-01 03:29N 52°25' E 004°47'0 0.0
2016-May-01 02:32N 52°25' E 004°47'0 0.0
2016-May-01 01:32N 52°25' E 004°47'0 0.0
2016-May-01 00:26N 52°25' E 004°47'0 0.0
2016-Apr-30 23:32N 52°25' E 004°47'0 0.0
2016-Apr-30 21:32N 52°25' E 004°47'0 0.0
2016-Apr-30 20:29N 52°25' E 004°47'0 0.0
2016-Apr-30 19:32N 52°25' E 004°47'0 0.0
2016-Apr-30 18:29N 52°25' E 004°47'0 0.0
2016-Apr-30 17:32N 52°25' E 004°47'0 0.0
2016-Apr-30 16:29N 52°25' E 004°47'0 0.0
2016-Apr-30 15:32N 52°25' E 004°47'0 0.3
2016-Apr-30 14:33N 52°25' E 004°47'7 7.0
2016-Apr-30 13:33N 52°28' E 004°36'8 7.6
2016-Apr-30 12:33N 52°28' E 004°24'1110.9
2016-Apr-30 11:33N 52°28' E 004°06'4 3.7
2016-Apr-30 10:32N 52°26' E 004°01'0 0.1
2016-Apr-30 09:26N 52°26' E 004°01'0 0.0
2016-Apr-30 08:32N 52°26' E 004°01'0 0.0
2016-Apr-30 07:32N 52°26' E 004°01'0 0.0
2016-Apr-30 06:32N 52°26' E 004°01'0 0.0
2016-Apr-30 05:32N 52°26' E 004°01'0 0.0
2016-Apr-30 04:32N 52°26' E 004°01'0 0.0
2016-Apr-30 03:26N 52°26' E 004°01'0 0.0
2016-Apr-30 02:32N 52°26' E 004°01'0 0.0
2016-Apr-30 01:32N 52°26' E 004°01'0 0.0
2016-Apr-30 00:32N 52°26' E 004°01'0 0.0
2016-Apr-29 23:32N 52°26' E 004°01'0 0.1
2016-Apr-29 22:32N 52°26' E 004°01'0 0.0
2016-Apr-29 21:32N 52°26' E 004°01'0 0.0
2016-Apr-29 20:32N 52°26' E 004°01'0 0.0
2016-Apr-29 19:32N 52°26' E 004°01'0 0.0
2016-Apr-29 18:33N 52°26' E 004°01'0 0.0
2016-Apr-29 17:33N 52°26' E 004°01'0 0.0
2016-Apr-29 16:33N 52°26' E 004°01'0 0.1
2016-Apr-29 15:33N 52°26' E 004°01'0 0.0
2016-Apr-29 14:33N 52°26' E 004°01'0 0.1
2016-Apr-29 13:33N 52°26' E 004°01'0 0.0
2016-Apr-29 12:33N 52°26' E 004°01'0 0.0
2016-Apr-29 11:33N 52°26' E 004°01'0 0.0
2016-Apr-29 10:33N 52°26' E 004°01'0 0.0
2016-Apr-29 09:33N 52°26' E 004°01'0 0.0
2016-Apr-29 08:33N 52°26' E 004°01'0 0.0
2016-Apr-29 07:33N 52°26' E 004°01'0 0.0
2016-Apr-29 06:33N 52°26' E 004°01'0 0.0
2016-Apr-29 05:34N 52°26' E 004°01'1 0.8
2016-Apr-29 04:33N 52°27' E 003°60'9 8.6
2016-Apr-29 03:33N 52°20' E 003°51'1212.1
2016-Apr-29 02:33N 52°08' E 003°54'9 8.8
2016-Apr-29 01:34N 52°00' E 004°01'6 5.2
2016-Apr-29 00:29N 51°57' E 004°09'0 0.0
2016-Apr-28 23:32N 51°57' E 004°09'0 0.0
2016-Apr-28 22:32N 51°57' E 004°09'0 0.0
2016-Apr-28 21:32N 51°57' E 004°09'0 0.0
2016-Apr-28 20:32N 51°57' E 004°09'0 0.0
2016-Apr-28 19:32N 51°57' E 004°09'0 0.0
2016-Apr-28 18:32N 51°57' E 004°09'0 0.0
2016-Apr-28 17:32N 51°57' E 004°09'0 0.0
2016-Apr-28 16:29N 51°57' E 004°09'0 0.0
2016-Apr-28 15:32N 51°57' E 004°09'0 0.0
2016-Apr-28 14:32N 51°57' E 004°09'0 0.0
2016-Apr-28 13:32N 51°57' E 004°09'0 0.0
2016-Apr-28 12:32N 51°57' E 004°09'0 0.0
2016-Apr-28 11:32N 51°57' E 004°09'0 0.0
2016-Apr-28 10:32N 51°57' E 004°09'0 0.0
2016-Apr-28 09:32N 51°57' E 004°09'0 0.0
2016-Apr-28 08:32N 51°57' E 004°09'0 0.0
2016-Apr-28 07:32N 51°57' E 004°09'0 0.0
2016-Apr-28 06:32N 51°57' E 004°09'0 0.0
2016-Apr-28 05:32N 51°57' E 004°09'0 0.0
2016-Apr-28 04:32N 51°57' E 004°09'0 0.0
2016-Apr-28 03:32N 51°57' E 004°09'0 0.0
2016-Apr-28 02:32N 51°57' E 004°09'0 0.0
2016-Apr-28 01:32N 51°57' E 004°09'0 0.0
2016-Apr-28 00:32N 51°57' E 004°09'0 0.0
2016-Apr-27 23:32N 51°57' E 004°09'0 0.0
2016-Apr-27 22:32N 51°57' E 004°09'0 0.0
2016-Apr-27 21:32N 51°57' E 004°09'0 0.0
2016-Apr-27 20:32N 51°57' E 004°09'0 0.0
2016-Apr-27 19:32N 51°57' E 004°09'0 0.0
2016-Apr-27 18:32N 51°57' E 004°09'0 0.0
2016-Apr-27 17:32N 51°57' E 004°09'0 0.0
2016-Apr-27 16:29N 51°57' E 004°09'0 0.0
2016-Apr-27 15:32N 51°57' E 004°09'0 0.0
2016-Apr-27 14:32N 51°57' E 004°09'0 0.0
2016-Apr-27 13:32N 51°57' E 004°09'0 0.0
2016-Apr-27 12:29N 51°57' E 004°09'0 0.0
2016-Apr-27 11:32N 51°57' E 004°09'0 0.0
2016-Apr-27 10:32N 51°57' E 004°09'0 0.0
2016-Apr-27 09:32N 51°57' E 004°09'0 0.0
2016-Apr-27 08:32N 51°57' E 004°09'0 0.0
2016-Apr-27 07:32N 51°57' E 004°09'0 0.0
2016-Apr-27 06:32N 51°57' E 004°09'0 0.0
2016-Apr-27 05:29N 51°57' E 004°09'0 0.0
2016-Apr-27 04:29N 51°57' E 004°09'0 0.0
2016-Apr-27 03:32N 51°57' E 004°09'0 0.0
2016-Apr-27 02:32N 51°57' E 004°09'0 0.0
2016-Apr-27 01:32N 51°57' E 004°09'0 0.0
2016-Apr-27 00:32N 51°57' E 004°09'0 0.0
2016-Apr-26 23:32N 51°57' E 004°09'0 0.0
2016-Apr-26 22:32N 51°57' E 004°09'0 0.0
2016-Apr-26 21:32N 51°57' E 004°09'0 0.0
2016-Apr-26 20:32N 51°57' E 004°09'0 0.0
2016-Apr-26 19:32N 51°57' E 004°09'0 0.0
2016-Apr-26 18:32N 51°57' E 004°09'0 0.0
2016-Apr-26 17:32N 51°57' E 004°09'0 0.2
2016-Apr-26 16:34N 51°57' E 004°08'1010.3
2016-Apr-26 15:34N 52°00' E 003°52'  
Track history (hours):
 
Tides and Currents Weather Stations Pressure Air Temp Water Temp Dewpoint Dewpoint Depression Visibility Wind Speed Wind Dir Waves Ship Positions

Sarah Desgagnes

Last reported at 2016-May-06 14:33 UTC. Time now 2016-May-06 14:56 UTC.
Position N 52°24' E 004°52'.

Length 147 m; draft 7.9 m.

Type: Ship. MMSI: 316012308.

Date/timePositionNaut miles runAvg speedWind from/ knotsBaromVisibWave heightAir tempDewpointWater temp
2016-May-06 14:33N 52°24' E 004°52'4 4.5
2016-May-06 13:33N 52°25' E 004°45'0 0.1
2016-May-06 12:25N 52°25' E 004°45'0 0.0
2016-May-06 11:31N 52°25' E 004°45'0 0.0
2016-May-06 10:31N 52°25' E 004°45'0 0.0
2016-May-06 09:22N 52°25' E 004°45'0 0.0
2016-May-06 08:31N 52°25' E 004°45'0 0.0
2016-May-06 07:28N 52°25' E 004°45'0 0.0
2016-May-06 06:31N 52°25' E 004°45'0 0.0
2016-May-06 05:31N 52°25' E 004°45'0 0.0
2016-May-06 04:28N 52°25' E 004°45'0 0.0
2016-May-06 03:28N 52°25' E 004°45'0 0.0
2016-May-06 02:28N 52°25' E 004°45'0 0.0
2016-May-06 01:31N 52°25' E 004°45'0 0.0
2016-May-06 00:28N 52°25' E 004°45'0 0.0
2016-May-05 23:31N 52°25' E 004°45'0 0.0
2016-May-05 22:28N 52°25' E 004°45'0 0.0
2016-May-05 21:31N 52°25' E 004°45'0 0.0
2016-May-05 20:28N 52°25' E 004°45'0 0.0
2016-May-05 19:31N 52°25' E 004°45'0 0.0
2016-May-05 18:31N 52°25' E 004°45'0 0.0
2016-May-05 17:28N 52°25' E 004°45'0 0.0
2016-May-05 16:25N 52°25' E 004°45'0 0.0
2016-May-05 15:31N 52°25' E 004°45'0 0.0
2016-May-05 14:31N 52°25' E 004°45'0 0.0
2016-May-05 13:31N 52°25' E 004°45'0 0.0
2016-May-05 12:31N 52°25' E 004°45'0 0.0
2016-May-05 11:31N 52°25' E 004°45'0 0.0
2016-May-05 10:28N 52°25' E 004°45'0 0.0
2016-May-05 09:31N 52°25' E 004°45'0 0.0
2016-May-05 08:28N 52°25' E 004°45'0 0.0
2016-May-05 07:25N 52°25' E 004°45'0 0.0
2016-May-05 06:31N 52°25' E 004°45'0 0.0
2016-May-05 05:28N 52°25' E 004°45'0 0.0
2016-May-05 04:31N 52°25' E 004°45'0 0.0
2016-May-05 03:31N 52°25' E 004°45'0 0.0
2016-May-05 02:31N 52°25' E 004°45'0 0.0
2016-May-05 01:31N 52°25' E 004°45'0 0.0
2016-May-05 00:28N 52°25' E 004°45'0 0.0
2016-May-04 23:31N 52°25' E 004°45'0 0.0
2016-May-04 22:31N 52°25' E 004°45'0 0.0
2016-May-04 21:31N 52°25' E 004°45'2 2.0
2016-May-04 20:33N 52°26' E 004°43'4 4.2
2016-May-04 19:34N 52°28' E 004°37'7 7.1
2016-May-04 18:33N 52°28' E 004°25'9 9.1
2016-May-04 17:34N 52°29' E 004°10'3 2.6
2016-May-04 16:32N 52°27' E 004°06'0 0.0
2016-May-04 15:32N 52°27' E 004°06'3 3.3
2016-May-04 14:33N 52°28' E 004°01'1211.9
2016-May-04 13:33N 52°25' E 003°42'1212.4
2016-May-04 12:33N 52°19' E 003°24'1313.1
2016-May-04 11:34N 52°10' E 003°09'1312.9
2016-May-04 10:33N 52°00' E 002°55'1312.9
2016-May-04 09:33N 51°50' E 002°42'1312.8
2016-May-04 08:33N 51°41' E 002°28'1312.8
2016-May-04 07:33N 51°31' E 002°14'1312.6
2016-May-04 06:33N 51°23' E 001°60'1211.6
2016-May-04 05:33N 51°28' E 001°43'1111.4
2016-May-04 04:33N 51°28' E 001°25'1212.2
2016-May-04 03:33N 51°30' E 001°05'1212.4
2016-May-04 02:33N 51°29' E 000°45'9 8.7
2016-May-04 01:33N 51°30' E 000°31'0 0.0
2016-May-04 00:32N 51°30' E 000°31'0 0.0
2016-May-03 23:32N 51°30' E 000°31'0 0.0
2016-May-03 22:31N 51°30' E 000°31'0 0.0
2016-May-03 21:32N 51°30' E 000°31'0 0.0
2016-May-03 20:32N 51°30' E 000°31'0 0.0
2016-May-03 19:32N 51°30' E 000°31'0 0.0
2016-May-03 18:29N 51°30' E 000°31'0 0.0
2016-May-03 17:32N 51°30' E 000°31'0 0.0
2016-May-03 16:31N 51°30' E 000°31'0 0.0
2016-May-03 15:32N 51°30' E 000°31'0 0.0
2016-May-03 14:31N 51°30' E 000°31'0 0.0
2016-May-03 13:32N 51°30' E 000°31'0 0.0
2016-May-03 12:32N 51°30' E 000°31'0 0.0
2016-May-03 11:31N 51°30' E 000°31'0 0.0
2016-May-03 10:31N 51°30' E 000°31'0 0.0
2016-May-03 09:25N 51°30' E 000°31'0 0.0
2016-May-03 08:31N 51°30' E 000°31'0 0.0
2016-May-03 07:31N 51°30' E 000°31'1 0.7
2016-May-03 06:33N 51°30' E 000°33'1111.2
2016-May-03 05:33N 51°29' E 000°51'1312.8
2016-May-03 04:33N 51°33' E 001°10'1313.4
2016-May-03 03:33N 51°42' E 001°27'7 7.3
2016-May-03 02:32N 51°49' E 001°29'0 0.1
2016-May-03 01:32N 51°49' E 001°29'0 0.0
2016-May-03 00:32N 51°49' E 001°29'0 0.0
2016-May-02 23:32N 51°49' E 001°29'0 0.0
2016-May-02 22:32N 51°49' E 001°29'0 0.0
2016-May-02 21:32N 51°49' E 001°29'0 0.0
2016-May-02 20:32N 51°49' E 001°29'0 0.1
2016-May-02 19:32N 51°49' E 001°29'0 0.1
2016-May-02 18:32N 51°49' E 001°29'0 0.0
2016-May-02 17:32N 51°49' E 001°29'0 0.0
2016-May-02 16:32N 51°49' E 001°29'0 0.1
2016-May-02 15:32N 51°49' E 001°29'0 0.2
2016-May-02 14:32N 51°49' E 001°29'0 0.3
2016-May-02 13:33N 51°49' E 001°29'8 8.2
2016-May-02 12:33N 51°52' E 001°42'1010.0
2016-May-02 11:33N 51°60' E 001°51'9 8.9
2016-May-02 10:33N 52°02' E 002°05'30 9.6
2016-May-02 07:28N 52°10' E 002°52'1010.3
2016-May-02 06:30N 52°16' E 003°04'1111.7
2016-May-02 05:33N 52°25' E 003°15'1211.8
2016-May-02 04:33N 52°30' E 003°33'1211.9
2016-May-02 03:33N 52°31' E 003°52'1212.1
2016-May-02 02:33N 52°31' E 004°12'1211.7
2016-May-02 01:33N 52°28' E 004°31'4 4.5
2016-May-02 00:33N 52°28' E 004°38'6 5.7
2016-May-01 23:33N 52°25' E 004°46'1 0.5
2016-May-01 22:32N 52°25' E 004°47'0 0.0
2016-May-01 21:29N 52°25' E 004°47'0 0.0
2016-May-01 20:29N 52°25' E 004°47'0 0.0
2016-May-01 19:29N 52°25' E 004°47'0 0.0
2016-May-01 18:32N 52°25' E 004°47'0 0.0
2016-May-01 17:32N 52°25' E 004°47'0 0.0
2016-May-01 16:32N 52°25' E 004°47'0 0.0
2016-May-01 15:32N 52°25' E 004°47'0 0.0
2016-May-01 14:32N 52°25' E 004°47'0 0.0
2016-May-01 13:32N 52°25' E 004°47'0 0.0
2016-May-01 12:32N 52°25' E 004°47'0 0.0
2016-May-01 11:32N 52°25' E 004°47'0 0.0
2016-May-01 10:32N 52°25' E 004°47'0 0.0
2016-May-01 09:32N 52°25' E 004°47'0 0.0
2016-May-01 08:32N 52°25' E 004°47'0 0.0
2016-May-01 07:32N 52°25' E 004°47'0 0.0
2016-May-01 06:32N 52°25' E 004°47'0 0.0
2016-May-01 05:32N 52°25' E 004°47'0 0.0
2016-May-01 04:26N 52°25' E 004°47'0 0.0
2016-May-01 03:29N 52°25' E 004°47'0 0.0
2016-May-01 02:32N 52°25' E 004°47'0 0.0
2016-May-01 01:32N 52°25' E 004°47'0 0.0
2016-May-01 00:26N 52°25' E 004°47'0 0.0
2016-Apr-30 23:32N 52°25' E 004°47'0 0.0
2016-Apr-30 21:32N 52°25' E 004°47'0 0.0
2016-Apr-30 20:29N 52°25' E 004°47'0 0.0
2016-Apr-30 19:32N 52°25' E 004°47'0 0.0
2016-Apr-30 18:29N 52°25' E 004°47'0 0.0
2016-Apr-30 17:32N 52°25' E 004°47'0 0.0
2016-Apr-30 16:29N 52°25' E 004°47'0 0.0
2016-Apr-30 15:32N 52°25' E 004°47'0 0.3
2016-Apr-30 14:33N 52°25' E 004°47'7 7.0
2016-Apr-30 13:33N 52°28' E 004°36'8 7.6
2016-Apr-30 12:33N 52°28' E 004°24'1110.9
2016-Apr-30 11:33N 52°28' E 004°06'4 3.7
2016-Apr-30 10:32N 52°26' E 004°01'0 0.1
2016-Apr-30 09:26N 52°26' E 004°01'0 0.0
2016-Apr-30 08:32N 52°26' E 004°01'0 0.0
2016-Apr-30 07:32N 52°26' E 004°01'0 0.0
2016-Apr-30 06:32N 52°26' E 004°01'0 0.0
2016-Apr-30 05:32N 52°26' E 004°01'0 0.0
2016-Apr-30 04:32N 52°26' E 004°01'0 0.0
2016-Apr-30 03:26N 52°26' E 004°01'0 0.0
2016-Apr-30 02:32N 52°26' E 004°01'0 0.0
2016-Apr-30 01:32N 52°26' E 004°01'0 0.0
2016-Apr-30 00:32N 52°26' E 004°01'0 0.0
2016-Apr-29 23:32N 52°26' E 004°01'0 0.1
2016-Apr-29 22:32N 52°26' E 004°01'0 0.0
2016-Apr-29 21:32N 52°26' E 004°01'0 0.0
2016-Apr-29 20:32N 52°26' E 004°01'0 0.0
2016-Apr-29 19:32N 52°26' E 004°01'0 0.0
2016-Apr-29 18:33N 52°26' E 004°01'0 0.0
2016-Apr-29 17:33N 52°26' E 004°01'0 0.0
2016-Apr-29 16:33N 52°26' E 004°01'0 0.1
2016-Apr-29 15:33N 52°26' E 004°01'0 0.0
2016-Apr-29 14:33N 52°26' E 004°01'0 0.1
2016-Apr-29 13:33N 52°26' E 004°01'0 0.0
2016-Apr-29 12:33N 52°26' E 004°01'0 0.0
2016-Apr-29 11:33N 52°26' E 004°01'0 0.0
2016-Apr-29 10:33N 52°26' E 004°01'0 0.0
2016-Apr-29 09:33N 52°26' E 004°01'0 0.0
2016-Apr-29 08:33N 52°26' E 004°01'0 0.0
2016-Apr-29 07:33N 52°26' E 004°01'0 0.0
2016-Apr-29 06:33N 52°26' E 004°01'0 0.0
2016-Apr-29 05:34N 52°26' E 004°01'1 0.8
2016-Apr-29 04:33N 52°27' E 003°60'9 8.6
2016-Apr-29 03:33N 52°20' E 003°51'1212.1
2016-Apr-29 02:33N 52°08' E 003°54'9 8.8
2016-Apr-29 01:34N 52°00' E 004°01'6 5.2
2016-Apr-29 00:29N 51°57' E 004°09'0 0.0
2016-Apr-28 23:32N 51°57' E 004°09'0 0.0
2016-Apr-28 22:32N 51°57' E 004°09'0 0.0
2016-Apr-28 21:32N 51°57' E 004°09'0 0.0
2016-Apr-28 20:32N 51°57' E 004°09'0 0.0
2016-Apr-28 19:32N 51°57' E 004°09'0 0.0
2016-Apr-28 18:32N 51°57' E 004°09'0 0.0
2016-Apr-28 17:32N 51°57' E 004°09'0 0.0
2016-Apr-28 16:29N 51°57' E 004°09'0 0.0
2016-Apr-28 15:32N 51°57' E 004°09'0 0.0
2016-Apr-28 14:32N 51°57' E 004°09'0 0.0
2016-Apr-28 13:32N 51°57' E 004°09'0 0.0
2016-Apr-28 12:32N 51°57' E 004°09'0 0.0
2016-Apr-28 11:32N 51°57' E 004°09'0 0.0
2016-Apr-28 10:32N 51°57' E 004°09'0 0.0
2016-Apr-28 09:32N 51°57' E 004°09'0 0.0
2016-Apr-28 08:32N 51°57' E 004°09'0 0.0
2016-Apr-28 07:32N 51°57' E 004°09'0 0.0
2016-Apr-28 06:32N 51°57' E 004°09'0 0.0
2016-Apr-28 05:32N 51°57' E 004°09'0 0.0
2016-Apr-28 04:32N 51°57' E 004°09'0 0.0
2016-Apr-28 03:32N 51°57' E 004°09'0 0.0
2016-Apr-28 02:32N 51°57' E 004°09'0 0.0
2016-Apr-28 01:32N 51°57' E 004°09'0 0.0
2016-Apr-28 00:32N 51°57' E 004°09'0 0.0
2016-Apr-27 23:32N 51°57' E 004°09'0 0.0
2016-Apr-27 22:32N 51°57' E 004°09'0 0.0
2016-Apr-27 21:32N 51°57' E 004°09'0 0.0
2016-Apr-27 20:32N 51°57' E 004°09'0 0.0
2016-Apr-27 19:32N 51°57' E 004°09'0 0.0
2016-Apr-27 18:32N 51°57' E 004°09'0 0.0
2016-Apr-27 17:32N 51°57' E 004°09'0 0.0
2016-Apr-27 16:29N 51°57' E 004°09'0 0.0
2016-Apr-27 15:32N 51°57' E 004°09'0 0.0
2016-Apr-27 14:32N 51°57' E 004°09'0 0.0
2016-Apr-27 13:32N 51°57' E 004°09'0 0.0
2016-Apr-27 12:29N 51°57' E 004°09'0 0.0
2016-Apr-27 11:32N 51°57' E 004°09'0 0.0
2016-Apr-27 10:32N 51°57' E 004°09'0 0.0
2016-Apr-27 09:32N 51°57' E 004°09'0 0.0
2016-Apr-27 08:32N 51°57' E 004°09'0 0.0
2016-Apr-27 07:32N 51°57' E 004°09'0 0.0
2016-Apr-27 06:32N 51°57' E 004°09'0 0.0
2016-Apr-27 05:29N 51°57' E 004°09'0 0.0
2016-Apr-27 04:29N 51°57' E 004°09'0 0.0
2016-Apr-27 03:32N 51°57' E 004°09'0 0.0
2016-Apr-27 02:32N 51°57' E 004°09'0 0.0
2016-Apr-27 01:32N 51°57' E 004°09'0 0.0
2016-Apr-27 00:32N 51°57' E 004°09'0 0.0
2016-Apr-26 23:32N 51°57' E 004°09'0 0.0
2016-Apr-26 22:32N 51°57' E 004°09'0 0.0
2016-Apr-26 21:32N 51°57' E 004°09'0 0.0
2016-Apr-26 20:32N 51°57' E 004°09'0 0.0
2016-Apr-26 19:32N 51°57' E 004°09'0 0.0
2016-Apr-26 18:32N 51°57' E 004°09'0 0.0
2016-Apr-26 17:32N 51°57' E 004°09'0 0.2
2016-Apr-26 16:34N 51°57' E 004°08'1010.3
2016-Apr-26 15:34N 52°00' E 003°52'  

Dump ship's entire track history